sensor_id;sensor_type;location;lat;lon;timestamp;P1;durP1;ratioP1;P2;durP2;ratioP2
45254;SDS011;30989;52.078;21.014;2022-09-09T00:01:52;7.43;;;3.03;;
45254;SDS011;30989;52.078;21.014;2022-09-09T00:06:58;8.00;;;3.67;;
45254;SDS011;30989;52.078;21.014;2022-09-09T00:09:29;9.52;;;4.50;;
45254;SDS011;30989;52.078;21.014;2022-09-09T00:12:13;11.63;;;4.32;;
45254;SDS011;30989;52.078;21.014;2022-09-09T00:14:54;13.88;;;3.45;;
45254;SDS011;30989;52.078;21.014;2022-09-09T00:19:52;8.65;;;3.67;;
45254;SDS011;30989;52.078;21.014;2022-09-09T00:22:27;10.32;;;4.13;;
45254;SDS011;30989;52.078;21.014;2022-09-09T00:24:57;8.35;;;3.33;;
45254;SDS011;30989;52.078;21.014;2022-09-09T00:27:42;11.27;;;4.13;;
45254;SDS011;30989;52.078;21.014;2022-09-09T00:32:39;8.40;;;4.05;;
45254;SDS011;30989;52.078;21.014;2022-09-09T00:35:21;10.52;;;3.60;;
45254;SDS011;30989;52.078;21.014;2022-09-09T00:37:51;7.43;;;3.75;;
45254;SDS011;30989;52.078;21.014;2022-09-09T00:40:25;11.75;;;5.60;;
45254;SDS011;30989;52.078;21.014;2022-09-09T00:48:54;8.85;;;3.70;;
45254;SDS011;30989;52.078;21.014;2022-09-09T00:51:46;12.88;;;5.30;;
45254;SDS011;30989;52.078;21.014;2022-09-09T00:54:28;7.07;;;3.70;;
45254;SDS011;30989;52.078;21.014;2022-09-09T00:59:47;17.45;;;5.03;;
45254;SDS011;30989;52.078;21.014;2022-09-09T01:02:28;11.70;;;4.35;;
45254;SDS011;30989;52.078;21.014;2022-09-09T01:04:59;9.18;;;4.30;;
45254;SDS011;30989;52.078;21.014;2022-09-09T01:07:32;10.60;;;3.85;;
45254;SDS011;30989;52.078;21.014;2022-09-09T01:09:58;12.80;;;5.32;;
45254;SDS011;30989;52.078;21.014;2022-09-09T01:12:38;11.77;;;5.18;;
45254;SDS011;30989;52.078;21.014;2022-09-09T01:15:13;10.25;;;3.95;;
45254;SDS011;30989;52.078;21.014;2022-09-09T01:18:02;11.80;;;5.07;;
45254;SDS011;30989;52.078;21.014;2022-09-09T01:23:17;10.07;;;4.57;;
45254;SDS011;30989;52.078;21.014;2022-09-09T01:28:48;10.52;;;4.68;;
45254;SDS011;30989;52.078;21.014;2022-09-09T01:31:19;13.32;;;5.43;;
45254;SDS011;30989;52.078;21.014;2022-09-09T01:33:48;12.23;;;5.65;;
45254;SDS011;30989;52.078;21.014;2022-09-09T01:36:22;15.20;;;5.78;;
45254;SDS011;30989;52.078;21.014;2022-09-09T01:38:51;18.85;;;6.25;;
45254;SDS011;30989;52.078;21.014;2022-09-09T01:41:17;13.90;;;5.35;;
45254;SDS011;30989;52.078;21.014;2022-09-09T01:43:57;14.35;;;5.18;;
45254;SDS011;30989;52.078;21.014;2022-09-09T01:46:24;10.77;;;5.18;;
45254;SDS011;30989;52.078;21.014;2022-09-09T01:48:51;10.70;;;5.53;;
45254;SDS011;30989;52.078;21.014;2022-09-09T01:51:18;12.38;;;5.20;;
45254;SDS011;30989;52.078;21.014;2022-09-09T01:53:44;13.63;;;5.75;;
45254;SDS011;30989;52.078;21.014;2022-09-09T01:56:21;11.88;;;4.93;;
45254;SDS011;30989;52.078;21.014;2022-09-09T02:04:41;10.98;;;4.82;;
45254;SDS011;30989;52.078;21.014;2022-09-09T02:13:12;10.05;;;5.50;;
45254;SDS011;30989;52.078;21.014;2022-09-09T02:15:55;11.68;;;4.70;;
45254;SDS011;30989;52.078;21.014;2022-09-09T02:18:30;9.48;;;4.53;;
45254;SDS011;30989;52.078;21.014;2022-09-09T02:21:11;12.68;;;5.82;;
45254;SDS011;30989;52.078;21.014;2022-09-09T02:23:39;10.88;;;4.72;;
45254;SDS011;30989;52.078;21.014;2022-09-09T02:26:10;10.75;;;5.43;;
45254;SDS011;30989;52.078;21.014;2022-09-09T02:28:39;10.82;;;5.90;;
45254;SDS011;30989;52.078;21.014;2022-09-09T02:31:05;12.60;;;5.80;;
45254;SDS011;30989;52.078;21.014;2022-09-09T02:33:38;12.27;;;5.75;;
45254;SDS011;30989;52.078;21.014;2022-09-09T02:36:08;13.45;;;5.57;;
45254;SDS011;30989;52.078;21.014;2022-09-09T02:38:37;15.10;;;6.95;;
45254;SDS011;30989;52.078;21.014;2022-09-09T02:41:11;10.35;;;5.03;;
45254;SDS011;30989;52.078;21.014;2022-09-09T02:43:37;9.98;;;4.55;;
45254;SDS011;30989;52.078;21.014;2022-09-09T02:46:53;13.82;;;5.60;;
45254;SDS011;30989;52.078;21.014;2022-09-09T02:49:19;11.10;;;5.50;;
45254;SDS011;30989;52.078;21.014;2022-09-09T02:51:52;13.68;;;5.75;;
45254;SDS011;30989;52.078;21.014;2022-09-09T02:54:33;13.80;;;5.93;;
45254;SDS011;30989;52.078;21.014;2022-09-09T02:59:46;14.75;;;5.80;;
45254;SDS011;30989;52.078;21.014;2022-09-09T03:02:12;8.25;;;4.88;;
45254;SDS011;30989;52.078;21.014;2022-09-09T03:04:40;14.38;;;6.40;;
45254;SDS011;30989;52.078;21.014;2022-09-09T03:07:09;15.55;;;6.00;;
45254;SDS011;30989;52.078;21.014;2022-09-09T03:09:35;14.60;;;6.18;;
45254;SDS011;30989;52.078;21.014;2022-09-09T03:12:00;10.85;;;5.85;;
45254;SDS011;30989;52.078;21.014;2022-09-09T03:14:29;10.90;;;5.35;;
45254;SDS011;30989;52.078;21.014;2022-09-09T03:16:55;11.35;;;5.72;;
45254;SDS011;30989;52.078;21.014;2022-09-09T03:19:24;10.05;;;5.03;;
45254;SDS011;30989;52.078;21.014;2022-09-09T03:21:50;11.57;;;5.80;;
45254;SDS011;30989;52.078;21.014;2022-09-09T03:24:16;9.85;;;4.82;;
45254;SDS011;30989;52.078;21.014;2022-09-09T03:26:42;9.82;;;5.40;;
45254;SDS011;30989;52.078;21.014;2022-09-09T03:29:13;9.23;;;4.68;;
45254;SDS011;30989;52.078;21.014;2022-09-09T03:31:40;8.38;;;4.35;;
45254;SDS011;30989;52.078;21.014;2022-09-09T03:34:06;9.88;;;5.10;;
45254;SDS011;30989;52.078;21.014;2022-09-09T03:36:34;15.02;;;6.82;;
45254;SDS011;30989;52.078;21.014;2022-09-09T03:39:00;13.25;;;5.90;;
45254;SDS011;30989;52.078;21.014;2022-09-09T03:41:29;11.73;;;5.43;;
45254;SDS011;30989;52.078;21.014;2022-09-09T03:43:55;11.73;;;4.75;;
45254;SDS011;30989;52.078;21.014;2022-09-09T03:46:23;13.80;;;5.72;;
45254;SDS011;30989;52.078;21.014;2022-09-09T03:48:52;12.38;;;5.93;;
45254;SDS011;30989;52.078;21.014;2022-09-09T03:51:18;8.70;;;4.80;;
45254;SDS011;30989;52.078;21.014;2022-09-09T03:53:45;8.88;;;4.18;;
45254;SDS011;30989;52.078;21.014;2022-09-09T03:56:11;9.70;;;5.15;;
45254;SDS011;30989;52.078;21.014;2022-09-09T03:58:37;10.63;;;4.80;;
45254;SDS011;30989;52.078;21.014;2022-09-09T04:01:07;9.65;;;4.53;;
45254;SDS011;30989;52.078;21.014;2022-09-09T04:03:41;8.32;;;4.53;;
45254;SDS011;30989;52.078;21.014;2022-09-09T04:06:08;14.13;;;4.63;;
45254;SDS011;30989;52.078;21.014;2022-09-09T04:08:36;9.98;;;5.10;;
45254;SDS011;30989;52.078;21.014;2022-09-09T04:11:08;11.48;;;4.70;;
45254;SDS011;30989;52.078;21.014;2022-09-09T04:13:35;12.95;;;4.93;;
45254;SDS011;30989;52.078;21.014;2022-09-09T04:16:08;9.32;;;4.68;;
45254;SDS011;30989;52.078;21.014;2022-09-09T04:18:36;11.27;;;5.07;;
45254;SDS011;30989;52.078;21.014;2022-09-09T04:21:02;8.80;;;5.22;;
45254;SDS011;30989;52.078;21.014;2022-09-09T04:23:30;7.18;;;4.00;;
45254;SDS011;30989;52.078;21.014;2022-09-09T04:25:58;7.57;;;4.70;;
45254;SDS011;30989;52.078;21.014;2022-09-09T04:28:26;7.50;;;3.88;;
45254;SDS011;30989;52.078;21.014;2022-09-09T04:30:53;9.73;;;3.75;;
45254;SDS011;30989;52.078;21.014;2022-09-09T04:33:19;7.18;;;4.18;;
45254;SDS011;30989;52.078;21.014;2022-09-09T04:35:48;9.50;;;4.60;;
45254;SDS011;30989;52.078;21.014;2022-09-09T04:38:16;9.27;;;4.30;;
45254;SDS011;30989;52.078;21.014;2022-09-09T04:40:43;6.63;;;4.00;;
45254;SDS011;30989;52.078;21.014;2022-09-09T04:43:12;7.20;;;4.00;;
45254;SDS011;30989;52.078;21.014;2022-09-09T04:45:37;10.50;;;5.18;;
45254;SDS011;30989;52.078;21.014;2022-09-09T04:48:09;8.07;;;3.88;;
45254;SDS011;30989;52.078;21.014;2022-09-09T04:50:35;12.77;;;4.40;;
45254;SDS011;30989;52.078;21.014;2022-09-09T04:53:01;8.05;;;4.47;;
45254;SDS011;30989;52.078;21.014;2022-09-09T04:55:29;10.02;;;4.90;;
45254;SDS011;30989;52.078;21.014;2022-09-09T04:57:55;16.55;;;8.02;;
45254;SDS011;30989;52.078;21.014;2022-09-09T05:00:23;9.65;;;4.75;;
45254;SDS011;30989;52.078;21.014;2022-09-09T05:02:51;9.13;;;4.75;;
45254;SDS011;30989;52.078;21.014;2022-09-09T05:05:17;10.18;;;4.32;;
45254;SDS011;30989;52.078;21.014;2022-09-09T05:07:45;10.48;;;4.70;;
45254;SDS011;30989;52.078;21.014;2022-09-09T05:10:12;8.48;;;4.18;;
45254;SDS011;30989;52.078;21.014;2022-09-09T05:12:42;6.68;;;4.13;;
45254;SDS011;30989;52.078;21.014;2022-09-09T05:15:07;9.50;;;4.35;;
45254;SDS011;30989;52.078;21.014;2022-09-09T05:17:34;9.52;;;3.97;;
45254;SDS011;30989;52.078;21.014;2022-09-09T05:20:00;7.68;;;4.32;;
45254;SDS011;30989;52.078;21.014;2022-09-09T05:22:29;8.52;;;4.93;;
45254;SDS011;30989;52.078;21.014;2022-09-09T05:24:55;8.13;;;4.07;;
45254;SDS011;30989;52.078;21.014;2022-09-09T05:27:20;7.50;;;4.38;;
45254;SDS011;30989;52.078;21.014;2022-09-09T05:29:47;9.60;;;4.22;;
45254;SDS011;30989;52.078;21.014;2022-09-09T05:32:13;10.25;;;4.22;;
45254;SDS011;30989;52.078;21.014;2022-09-09T05:34:43;8.15;;;3.38;;
45254;SDS011;30989;52.078;21.014;2022-09-09T05:37:08;8.35;;;4.55;;
45254;SDS011;30989;52.078;21.014;2022-09-09T05:39:35;9.52;;;4.80;;
45254;SDS011;30989;52.078;21.014;2022-09-09T05:42:02;10.32;;;4.70;;
45254;SDS011;30989;52.078;21.014;2022-09-09T05:44:29;8.38;;;3.92;;
45254;SDS011;30989;52.078;21.014;2022-09-09T05:46:55;7.28;;;3.90;;
45254;SDS011;30989;52.078;21.014;2022-09-09T05:49:21;9.25;;;4.57;;
45254;SDS011;30989;52.078;21.014;2022-09-09T05:51:47;8.25;;;4.50;;
45254;SDS011;30989;52.078;21.014;2022-09-09T05:54:16;8.05;;;3.88;;
45254;SDS011;30989;52.078;21.014;2022-09-09T05:56:46;13.77;;;4.97;;
45254;SDS011;30989;52.078;21.014;2022-09-09T05:59:11;8.65;;;4.35;;
45254;SDS011;30989;52.078;21.014;2022-09-09T06:01:38;7.93;;;3.85;;
45254;SDS011;30989;52.078;21.014;2022-09-09T06:04:06;6.95;;;4.05;;
45254;SDS011;30989;52.078;21.014;2022-09-09T06:06:33;10.05;;;4.18;;
45254;SDS011;30989;52.078;21.014;2022-09-09T06:09:02;7.32;;;3.97;;
45254;SDS011;30989;52.078;21.014;2022-09-09T06:14:02;7.82;;;4.65;;
45254;SDS011;30989;52.078;21.014;2022-09-09T06:16:29;8.73;;;5.07;;
45254;SDS011;30989;52.078;21.014;2022-09-09T06:18:58;7.85;;;4.72;;
45254;SDS011;30989;52.078;21.014;2022-09-09T06:21:28;8.05;;;4.35;;
45254;SDS011;30989;52.078;21.014;2022-09-09T06:23:59;11.88;;;5.75;;
45254;SDS011;30989;52.078;21.014;2022-09-09T06:26:26;6.63;;;3.75;;
45254;SDS011;30989;52.078;21.014;2022-09-09T06:28:55;8.80;;;4.72;;
45254;SDS011;30989;52.078;21.014;2022-09-09T06:31:24;9.98;;;4.22;;
45254;SDS011;30989;52.078;21.014;2022-09-09T06:33:53;8.05;;;4.80;;
45254;SDS011;30989;52.078;21.014;2022-09-09T06:36:22;8.88;;;4.90;;
45254;SDS011;30989;52.078;21.014;2022-09-09T06:38:56;9.65;;;4.47;;
45254;SDS011;30989;52.078;21.014;2022-09-09T06:41:23;9.60;;;4.68;;
45254;SDS011;30989;52.078;21.014;2022-09-09T06:43:51;8.35;;;4.90;;
45254;SDS011;30989;52.078;21.014;2022-09-09T06:46:23;8.07;;;4.20;;
45254;SDS011;30989;52.078;21.014;2022-09-09T06:48:54;8.48;;;4.63;;
45254;SDS011;30989;52.078;21.014;2022-09-09T06:51:22;10.32;;;4.60;;
45254;SDS011;30989;52.078;21.014;2022-09-09T06:53:56;10.43;;;5.30;;
45254;SDS011;30989;52.078;21.014;2022-09-09T06:58:55;9.90;;;4.85;;
45254;SDS011;30989;52.078;21.014;2022-09-09T07:01:27;11.47;;;5.70;;
45254;SDS011;30989;52.078;21.014;2022-09-09T07:03:59;14.25;;;6.00;;
45254;SDS011;30989;52.078;21.014;2022-09-09T07:06:27;9.23;;;5.35;;
45254;SDS011;30989;52.078;21.014;2022-09-09T07:08:57;9.57;;;4.47;;
45254;SDS011;30989;52.078;21.014;2022-09-09T07:11:27;8.70;;;5.07;;
45254;SDS011;30989;52.078;21.014;2022-09-09T07:13:55;10.18;;;4.78;;
45254;SDS011;30989;52.078;21.014;2022-09-09T07:16:22;10.70;;;6.35;;
45254;SDS011;30989;52.078;21.014;2022-09-09T07:18:49;9.82;;;5.97;;
45254;SDS011;30989;52.078;21.014;2022-09-09T07:21:16;12.02;;;7.13;;
45254;SDS011;30989;52.078;21.014;2022-09-09T07:23:42;8.93;;;5.25;;
45254;SDS011;30989;52.078;21.014;2022-09-09T07:26:10;11.05;;;5.70;;
45254;SDS011;30989;52.078;21.014;2022-09-09T07:28:37;13.77;;;6.82;;
45254;SDS011;30989;52.078;21.014;2022-09-09T07:31:04;12.90;;;7.20;;
45254;SDS011;30989;52.078;21.014;2022-09-09T07:33:33;12.40;;;6.68;;
45254;SDS011;30989;52.078;21.014;2022-09-09T07:36:03;15.32;;;6.50;;
45254;SDS011;30989;52.078;21.014;2022-09-09T07:38:31;14.98;;;8.40;;
45254;SDS011;30989;52.078;21.014;2022-09-09T07:41:04;10.95;;;6.43;;
45254;SDS011;30989;52.078;21.014;2022-09-09T07:43:32;16.73;;;6.45;;
45254;SDS011;30989;52.078;21.014;2022-09-09T07:45:59;11.75;;;7.20;;
45254;SDS011;30989;52.078;21.014;2022-09-09T07:48:27;12.25;;;6.28;;
45254;SDS011;30989;52.078;21.014;2022-09-09T07:51:02;16.40;;;6.50;;
45254;SDS011;30989;52.078;21.014;2022-09-09T07:53:29;13.07;;;5.65;;
45254;SDS011;30989;52.078;21.014;2022-09-09T07:56:01;11.80;;;6.88;;
45254;SDS011;30989;52.078;21.014;2022-09-09T07:58:28;14.80;;;7.05;;
45254;SDS011;30989;52.078;21.014;2022-09-09T08:00:54;15.60;;;6.95;;
45254;SDS011;30989;52.078;21.014;2022-09-09T08:03:20;15.00;;;6.43;;
45254;SDS011;30989;52.078;21.014;2022-09-09T08:05:47;14.13;;;7.55;;
45254;SDS011;30989;52.078;21.014;2022-09-09T08:08:13;12.50;;;6.25;;
45254;SDS011;30989;52.078;21.014;2022-09-09T08:10:38;16.17;;;7.57;;
45254;SDS011;30989;52.078;21.014;2022-09-09T08:13:04;13.02;;;7.00;;
45254;SDS011;30989;52.078;21.014;2022-09-09T08:15:33;11.65;;;6.97;;
45254;SDS011;30989;52.078;21.014;2022-09-09T08:17:59;16.33;;;7.53;;
45254;SDS011;30989;52.078;21.014;2022-09-09T08:20:25;15.00;;;8.10;;
45254;SDS011;30989;52.078;21.014;2022-09-09T08:22:54;16.35;;;6.97;;
45254;SDS011;30989;52.078;21.014;2022-09-09T08:25:20;21.23;;;8.07;;
45254;SDS011;30989;52.078;21.014;2022-09-09T08:27:46;14.10;;;6.30;;
45254;SDS011;30989;52.078;21.014;2022-09-09T08:30:12;16.40;;;8.65;;
45254;SDS011;30989;52.078;21.014;2022-09-09T08:32:38;26.52;;;9.90;;
45254;SDS011;30989;52.078;21.014;2022-09-09T08:35:04;17.95;;;7.57;;
45254;SDS011;30989;52.078;21.014;2022-09-09T08:37:30;16.67;;;7.43;;
45254;SDS011;30989;52.078;21.014;2022-09-09T08:39:57;16.23;;;7.05;;
45254;SDS011;30989;52.078;21.014;2022-09-09T08:48:28;15.93;;;7.88;;
45254;SDS011;30989;52.078;21.014;2022-09-09T08:50:49;16.85;;;9.25;;
45254;SDS011;30989;52.078;21.014;2022-09-09T08:53:28;14.98;;;7.93;;
45254;SDS011;30989;52.078;21.014;2022-09-09T08:56:01;14.57;;;7.55;;
45254;SDS011;30989;52.078;21.014;2022-09-09T08:58:49;12.40;;;7.07;;
45254;SDS011;30989;52.078;21.014;2022-09-09T09:07:28;15.23;;;7.95;;
45254;SDS011;30989;52.078;21.014;2022-09-09T09:12:46;14.77;;;8.23;;
45254;SDS011;30989;52.078;21.014;2022-09-09T09:15:22;15.25;;;7.88;;
45254;SDS011;30989;52.078;21.014;2022-09-09T09:17:51;18.15;;;8.60;;
45254;SDS011;30989;52.078;21.014;2022-09-09T09:20:18;18.65;;;9.55;;
45254;SDS011;30989;52.078;21.014;2022-09-09T09:22:54;20.73;;;9.75;;
45254;SDS011;30989;52.078;21.014;2022-09-09T09:25:30;17.90;;;9.02;;
45254;SDS011;30989;52.078;21.014;2022-09-09T09:30:42;19.10;;;9.23;;
45254;SDS011;30989;52.078;21.014;2022-09-09T09:33:17;17.13;;;8.93;;
45254;SDS011;30989;52.078;21.014;2022-09-09T09:35:49;26.20;;;10.48;;
45254;SDS011;30989;52.078;21.014;2022-09-09T09:38:17;19.48;;;9.73;;
45254;SDS011;30989;52.078;21.014;2022-09-09T09:40:51;22.13;;;9.18;;
45254;SDS011;30989;52.078;21.014;2022-09-09T09:43:30;18.75;;;8.80;;
45254;SDS011;30989;52.078;21.014;2022-09-09T09:46:05;25.40;;;9.43;;
45254;SDS011;30989;52.078;21.014;2022-09-09T09:48:43;24.63;;;10.60;;
45254;SDS011;30989;52.078;21.014;2022-09-09T09:51:12;26.65;;;10.73;;
45254;SDS011;30989;52.078;21.014;2022-09-09T09:53:42;20.53;;;10.47;;
45254;SDS011;30989;52.078;21.014;2022-09-09T09:56:11;21.60;;;9.70;;
45254;SDS011;30989;52.078;21.014;2022-09-09T10:01:30;25.88;;;10.98;;
45254;SDS011;30989;52.078;21.014;2022-09-09T10:04:02;23.58;;;11.10;;
45254;SDS011;30989;52.078;21.014;2022-09-09T10:06:39;22.23;;;10.13;;
45254;SDS011;30989;52.078;21.014;2022-09-09T10:09:24;21.05;;;10.25;;
45254;SDS011;30989;52.078;21.014;2022-09-09T10:12:04;21.58;;;10.57;;
45254;SDS011;30989;52.078;21.014;2022-09-09T10:20:13;20.50;;;10.95;;
45254;SDS011;30989;52.078;21.014;2022-09-09T10:22:47;23.05;;;10.75;;
45254;SDS011;30989;52.078;21.014;2022-09-09T10:28:22;28.08;;;11.73;;
45254;SDS011;30989;52.078;21.014;2022-09-09T10:36:42;30.85;;;11.93;;
45254;SDS011;30989;52.078;21.014;2022-09-09T10:42:05;33.35;;;11.45;;
45254;SDS011;30989;52.078;21.014;2022-09-09T10:44:56;24.67;;;11.43;;
45254;SDS011;30989;52.078;21.014;2022-09-09T10:47:46;23.77;;;11.13;;
45254;SDS011;30989;52.078;21.014;2022-09-09T10:50:35;29.20;;;12.95;;
45254;SDS011;30989;52.078;21.014;2022-09-09T10:56:09;28.88;;;13.25;;
45254;SDS011;30989;52.078;21.014;2022-09-09T11:01:14;28.65;;;12.75;;
45254;SDS011;30989;52.078;21.014;2022-09-09T11:03:44;26.08;;;11.85;;
45254;SDS011;30989;52.078;21.014;2022-09-09T11:06:21;30.30;;;13.30;;
45254;SDS011;30989;52.078;21.014;2022-09-09T11:08:53;31.23;;;12.88;;
45254;SDS011;30989;52.078;21.014;2022-09-09T11:11:34;28.25;;;12.82;;
45254;SDS011;30989;52.078;21.014;2022-09-09T11:17:20;29.08;;;13.43;;
45254;SDS011;30989;52.078;21.014;2022-09-09T11:19:53;36.92;;;14.05;;
45254;SDS011;30989;52.078;21.014;2022-09-09T11:22:33;37.20;;;15.02;;
45254;SDS011;30989;52.078;21.014;2022-09-09T11:36:06;34.53;;;13.38;;
45254;SDS011;30989;52.078;21.014;2022-09-09T11:38:45;31.13;;;14.52;;
45254;SDS011;30989;52.078;21.014;2022-09-09T11:41:12;32.35;;;13.55;;
45254;SDS011;30989;52.078;21.014;2022-09-09T11:43:44;38.33;;;14.05;;
45254;SDS011;30989;52.078;21.014;2022-09-09T11:46:12;36.63;;;16.20;;
45254;SDS011;30989;52.078;21.014;2022-09-09T11:48:44;31.00;;;13.77;;
45254;SDS011;30989;52.078;21.014;2022-09-09T11:53:59;26.77;;;14.05;;
45254;SDS011;30989;52.078;21.014;2022-09-09T11:58:54;36.40;;;14.02;;
45254;SDS011;30989;52.078;21.014;2022-09-09T12:06:51;35.63;;;15.73;;
45254;SDS011;30989;52.078;21.014;2022-09-09T12:09:31;37.70;;;17.13;;
45254;SDS011;30989;52.078;21.014;2022-09-09T12:17:37;36.58;;;16.02;;
45254;SDS011;30989;52.078;21.014;2022-09-09T12:20:52;36.35;;;16.80;;
45254;SDS011;30989;52.078;21.014;2022-09-09T12:25:49;39.08;;;16.98;;
45254;SDS011;30989;52.078;21.014;2022-09-09T12:33:36;28.77;;;14.52;;
45254;SDS011;30989;52.078;21.014;2022-09-09T12:36:10;31.70;;;15.25;;
45254;SDS011;30989;52.078;21.014;2022-09-09T12:38:39;41.45;;;16.48;;
45254;SDS011;30989;52.078;21.014;2022-09-09T12:41:06;36.75;;;16.88;;
45254;SDS011;30989;52.078;21.014;2022-09-09T12:43:44;37.67;;;15.10;;
45254;SDS011;30989;52.078;21.014;2022-09-09T12:46:12;42.25;;;16.58;;
45254;SDS011;30989;52.078;21.014;2022-09-09T12:48:46;37.65;;;17.88;;
45254;SDS011;30989;52.078;21.014;2022-09-09T12:51:30;38.45;;;16.08;;
45254;SDS011;30989;52.078;21.014;2022-09-09T12:53:58;36.67;;;16.60;;
45254;SDS011;30989;52.078;21.014;2022-09-09T12:56:25;44.63;;;18.25;;
45254;SDS011;30989;52.078;21.014;2022-09-09T12:58:54;35.70;;;16.85;;
45254;SDS011;30989;52.078;21.014;2022-09-09T13:03:49;40.30;;;17.45;;
45254;SDS011;30989;52.078;21.014;2022-09-09T13:06:22;39.35;;;16.83;;
45254;SDS011;30989;52.078;21.014;2022-09-09T13:08:52;38.70;;;16.25;;
45254;SDS011;30989;52.078;21.014;2022-09-09T13:11:41;36.05;;;14.88;;
45254;SDS011;30989;52.078;21.014;2022-09-09T13:14:27;38.50;;;14.35;;
45254;SDS011;30989;52.078;21.014;2022-09-09T13:16:56;44.45;;;17.80;;
45254;SDS011;30989;52.078;21.014;2022-09-09T13:19:23;37.83;;;15.13;;
45254;SDS011;30989;52.078;21.014;2022-09-09T13:21:53;36.60;;;15.48;;
45254;SDS011;30989;52.078;21.014;2022-09-09T13:24:30;36.78;;;15.40;;
45254;SDS011;30989;52.078;21.014;2022-09-09T13:26:58;34.47;;;14.88;;
45254;SDS011;30989;52.078;21.014;2022-09-09T13:29:29;41.33;;;16.10;;
45254;SDS011;30989;52.078;21.014;2022-09-09T13:32:05;30.75;;;13.95;;
45254;SDS011;30989;52.078;21.014;2022-09-09T13:34:37;34.22;;;14.00;;
45254;SDS011;30989;52.078;21.014;2022-09-09T13:37:04;30.35;;;11.88;;
45254;SDS011;30989;52.078;21.014;2022-09-09T13:39:34;27.27;;;12.07;;
45254;SDS011;30989;52.078;21.014;2022-09-09T13:42:02;37.17;;;16.27;;
45254;SDS011;30989;52.078;21.014;2022-09-09T13:44:30;32.22;;;13.00;;
45254;SDS011;30989;52.078;21.014;2022-09-09T13:49:31;28.40;;;12.45;;
45254;SDS011;30989;52.078;21.014;2022-09-09T13:52:08;32.45;;;13.80;;
45254;SDS011;30989;52.078;21.014;2022-09-09T13:54:35;29.63;;;12.93;;
45254;SDS011;30989;52.078;21.014;2022-09-09T13:57:00;38.45;;;14.70;;
45254;SDS011;30989;52.078;21.014;2022-09-09T13:59:26;28.40;;;13.07;;
45254;SDS011;30989;52.078;21.014;2022-09-09T14:01:52;25.65;;;11.23;;
45254;SDS011;30989;52.078;21.014;2022-09-09T14:04:18;31.15;;;12.07;;
45254;SDS011;30989;52.078;21.014;2022-09-09T14:06:47;30.67;;;11.93;;
45254;SDS011;30989;52.078;21.014;2022-09-09T14:09:16;28.80;;;12.30;;
45254;SDS011;30989;52.078;21.014;2022-09-09T14:11:43;24.20;;;10.82;;
45254;SDS011;30989;52.078;21.014;2022-09-09T14:14:13;34.28;;;13.73;;
45254;SDS011;30989;52.078;21.014;2022-09-09T14:16:38;29.67;;;12.00;;
45254;SDS011;30989;52.078;21.014;2022-09-09T14:19:04;27.67;;;14.00;;
45254;SDS011;30989;52.078;21.014;2022-09-09T14:21:29;33.38;;;13.73;;
45254;SDS011;30989;52.078;21.014;2022-09-09T14:23:55;27.67;;;13.68;;
45254;SDS011;30989;52.078;21.014;2022-09-09T14:26:23;26.65;;;10.68;;
45254;SDS011;30989;52.078;21.014;2022-09-09T14:28:49;26.52;;;12.48;;
45254;SDS011;30989;52.078;21.014;2022-09-09T14:31:15;27.52;;;13.40;;
45254;SDS011;30989;52.078;21.014;2022-09-09T14:33:42;26.77;;;13.02;;
45254;SDS011;30989;52.078;21.014;2022-09-09T14:36:09;29.88;;;13.80;;
45254;SDS011;30989;52.078;21.014;2022-09-09T14:38:35;28.13;;;14.55;;
45254;SDS011;30989;52.078;21.014;2022-09-09T14:41:05;34.97;;;12.70;;
45254;SDS011;30989;52.078;21.014;2022-09-09T14:43:45;36.47;;;15.38;;
45254;SDS011;30989;52.078;21.014;2022-09-09T14:46:12;37.45;;;15.73;;
45254;SDS011;30989;52.078;21.014;2022-09-09T14:48:41;33.53;;;12.82;;
45254;SDS011;30989;52.078;21.014;2022-09-09T14:51:09;33.17;;;12.45;;
45254;SDS011;30989;52.078;21.014;2022-09-09T14:53:43;31.67;;;13.70;;
45254;SDS011;30989;52.078;21.014;2022-09-09T14:56:10;29.25;;;12.50;;
45254;SDS011;30989;52.078;21.014;2022-09-09T14:58:38;27.23;;;11.77;;
45254;SDS011;30989;52.078;21.014;2022-09-09T15:01:04;34.63;;;12.90;;
45254;SDS011;30989;52.078;21.014;2022-09-09T15:03:38;28.92;;;12.52;;
45254;SDS011;30989;52.078;21.014;2022-09-09T15:06:08;33.42;;;12.85;;
45254;SDS011;30989;52.078;21.014;2022-09-09T15:08:35;35.63;;;13.00;;
45254;SDS011;30989;52.078;21.014;2022-09-09T15:11:02;36.90;;;15.70;;
45254;SDS011;30989;52.078;21.014;2022-09-09T15:13:32;29.27;;;13.27;;
45254;SDS011;30989;52.078;21.014;2022-09-09T15:16:03;36.03;;;14.80;;
45254;SDS011;30989;52.078;21.014;2022-09-09T15:18:30;32.95;;;13.63;;
45254;SDS011;30989;52.078;21.014;2022-09-09T15:21:11;35.03;;;15.15;;
45254;SDS011;30989;52.078;21.014;2022-09-09T15:24:26;32.63;;;13.35;;
45254;SDS011;30989;52.078;21.014;2022-09-09T15:28:35;40.25;;;15.85;;
45254;SDS011;30989;52.078;21.014;2022-09-09T15:32:27;34.60;;;15.43;;
45254;SDS011;30989;52.078;21.014;2022-09-09T15:34:53;32.88;;;13.32;;
45254;SDS011;30989;52.078;21.014;2022-09-09T15:37:28;30.52;;;13.93;;
45254;SDS011;30989;52.078;21.014;2022-09-09T15:40:44;34.33;;;12.80;;
45254;SDS011;30989;52.078;21.014;2022-09-09T15:43:12;29.55;;;13.10;;
45254;SDS011;30989;52.078;21.014;2022-09-09T15:45:38;33.45;;;13.27;;
45254;SDS011;30989;52.078;21.014;2022-09-09T15:48:03;33.70;;;14.57;;
45254;SDS011;30989;52.078;21.014;2022-09-09T15:50:29;31.20;;;13.20;;
45254;SDS011;30989;52.078;21.014;2022-09-09T15:52:58;37.60;;;15.07;;
45254;SDS011;30989;52.078;21.014;2022-09-09T15:55:24;36.47;;;15.05;;
45254;SDS011;30989;52.078;21.014;2022-09-09T15:57:50;31.25;;;13.50;;
45254;SDS011;30989;52.078;21.014;2022-09-09T16:00:18;30.05;;;13.00;;
45254;SDS011;30989;52.078;21.014;2022-09-09T16:02:44;29.83;;;11.77;;
45254;SDS011;30989;52.078;21.014;2022-09-09T16:05:13;30.33;;;13.65;;
45254;SDS011;30989;52.078;21.014;2022-09-09T16:07:38;32.03;;;14.27;;
45254;SDS011;30989;52.078;21.014;2022-09-09T16:10:04;35.20;;;15.50;;
45254;SDS011;30989;52.078;21.014;2022-09-09T16:12:31;32.97;;;14.32;;
45254;SDS011;30989;52.078;21.014;2022-09-09T16:14:57;30.25;;;12.60;;
45254;SDS011;30989;52.078;21.014;2022-09-09T16:17:22;32.20;;;13.70;;
45254;SDS011;30989;52.078;21.014;2022-09-09T16:19:48;32.35;;;14.88;;
45254;SDS011;30989;52.078;21.014;2022-09-09T16:22:13;32.95;;;14.20;;
45254;SDS011;30989;52.078;21.014;2022-09-09T16:24:40;35.78;;;14.65;;
45254;SDS011;30989;52.078;21.014;2022-09-09T16:27:06;32.83;;;14.68;;
45254;SDS011;30989;52.078;21.014;2022-09-09T16:29:31;42.20;;;16.52;;
45254;SDS011;30989;52.078;21.014;2022-09-09T16:31:57;34.20;;;15.88;;
45254;SDS011;30989;52.078;21.014;2022-09-09T16:34:23;38.42;;;15.52;;
45254;SDS011;30989;52.078;21.014;2022-09-09T16:36:50;33.58;;;13.95;;
45254;SDS011;30989;52.078;21.014;2022-09-09T16:39:19;32.17;;;13.95;;
45254;SDS011;30989;52.078;21.014;2022-09-09T16:41:48;32.10;;;14.85;;
45254;SDS011;30989;52.078;21.014;2022-09-09T16:44:15;34.28;;;15.00;;
45254;SDS011;30989;52.078;21.014;2022-09-09T16:46:51;32.22;;;14.32;;
45254;SDS011;30989;52.078;21.014;2022-09-09T16:49:19;35.28;;;14.85;;